Maersk_kyrenia — VRGM8 — position and weather

sailwx.info

Track history (hours):
 
Tides and Currents Weather Stations Pressure Air Temp Water Temp Dewpoint Dewpoint Depression Visibility Wind Speed Wind Dir Waves Ship Positions

Maersk_kyrenia

Last reported at 2014-Sep-19 11:00 UTC. Time now 2014-Sep-21 18:05 UTC.
Position N 25°24' E 035°54'.

Length 300 m; draft 13.7 m.

MMSI: 477733600.

Wind from 320 at 19 knots

Waves 1.5 meters (5 feet), 6 second period

Barometer 1013.8 mb
Air temperature 34.5 ° C
Visibility: greater than 5.4 NM
Dewpoint 24.7 ° C
Water temperature 30.0 ° C

Date/timePositionNaut miles runAvg speedWind from/ knotsBaromVisibWave heightAir tempDewpointWater temp
2014-Sep-19 11:00N 25°24' E 035°54'   320 / 191013.8 5.4 1.534.524.730.0
2014-Sep-15 11:14N 31°56' E 031°24'913.3
2014-Sep-15 10:33N 31°59' E 031°14'1413.2
2014-Sep-15 09:29N 32°04' E 030°58'1213.4
2014-Sep-15 08:33N 32°08' E 030°45'11213.1
2014-Sep-15 00:00N 32°36' E 028°36'68513.7 340 / 61012.810.8 0.529.521.428.0
2014-Sep-12 22:08N 36°07' E 015°27'814.4
2014-Sep-12 21:34N 36°09' E 015°17'1514.5
2014-Sep-12 20:32N 36°14' E 014°60'1414.6
2014-Sep-12 19:33N 36°19' E 014°43'1514.7
2014-Sep-12 18:34N 36°23' E 014°26'1714.9
2014-Sep-12 17:27N 36°28' E 014°06'1415.5
2014-Sep-12 16:34N 36°32' E 013°49'1715.6
2014-Sep-12 15:29N 36°37' E 013°29'1414.7
2014-Sep-12 14:31N 36°41' E 013°13'4015.7
2014-Sep-12 12:00N 36°48' E 012°24'2313.4 220 / 121018.810.8 0.529.523.826.0
2014-Sep-12 10:19N 36°60' E 012°00'5714.4
2014-Sep-12 06:22N 37°26' E 010°56'1214.9
2014-Sep-12 05:33N 37°29' E 010°42'11814.6
2014-Sep-11 21:26N 37°15' E 008°14'1314.1
2014-Sep-11 20:30N 37°15' E 007°57'1914.5
2014-Sep-11 19:11N 37°15' E 007°33'7315.0
2014-Sep-11 14:19N 37°15' E 006°02'1114.1
2014-Sep-11 13:34N 37°15' E 005°48'2415.5
2014-Sep-11 12:00N 37°12' E 005°18'811.7 290 / 101015.0 5.4 0.528.522.726.0
2014-Sep-11 11:17N 37°16' E 005°09'2814.3
2014-Sep-11 09:20N 37°15' E 004°34'1515.1
2014-Sep-11 08:20N 37°15' E 004°15'1215.2
2014-Sep-11 07:33N 37°15' E 003°60'1514.9
2014-Sep-11 06:32N 37°15' E 003°41'1514.9
2014-Sep-11 05:33N 37°15' E 003°22'1514.9
2014-Sep-11 04:33N 37°15' E 003°03'1414.4
2014-Sep-11 03:34N 37°14' E 002°46'1414.4
2014-Sep-11 02:33N 37°11' E 002°28'1414.4
2014-Sep-11 01:33N 37°07' E 002°10'1514.6
2014-Sep-11 00:33N 37°04' E 001°53'2014.2
2014-Sep-10 23:08N 37°00' E 001°28'1014.3
2014-Sep-10 22:26N 36°58' E 001°16'1314.8
2014-Sep-10 21:33N 36°55' E 000°60'1915.2
2014-Sep-10 20:18N 36°51' E 000°36'1115.2
2014-Sep-10 19:33N 36°49' E 000°23'1515.0
2014-Sep-10 18:33N 36°46' E 000°04'1514.7
2014-Sep-10 17:33N 36°42' W 000°14'1514.7
2014-Sep-10 16:32N 36°39' W 000°32'1514.8
2014-Sep-10 15:32N 36°36' W 000°50'4813.6
2014-Sep-10 12:00N 36°24' W 001°48'17715.5 230 / 121016.110.8 0.528.022.123.0
2014-Sep-10 00:32N 35°57' W 005°25'17114.1
2014-Sep-09 12:24N 36°29' W 008°53'  
Track history (hours):
 
Tides and Currents Weather Stations Pressure Air Temp Water Temp Dewpoint Dewpoint Depression Visibility Wind Speed Wind Dir Waves Ship Positions

Maersk_kyrenia

Last reported at 2014-Sep-19 11:00 UTC. Time now 2014-Sep-21 18:05 UTC.
Position N 25°24' E 035°54'.

Length 300 m; draft 13.7 m.

MMSI: 477733600.

Wind from 320 at 19 knots

Waves 1.5 meters (5 feet), 6 second period

Barometer 1013.8 mb
Air temperature 34.5 ° C
Visibility: greater than 5.4 NM
Dewpoint 24.7 ° C
Water temperature 30.0 ° C

Date/timePositionNaut miles runAvg speedWind from/ knotsBaromVisibWave heightAir tempDewpointWater temp
2014-Sep-19 11:00N 25°24' E 035°54'   320 / 191013.8 5.4 1.534.524.730.0
2014-Sep-15 11:14N 31°56' E 031°24'913.3
2014-Sep-15 10:33N 31°59' E 031°14'1413.2
2014-Sep-15 09:29N 32°04' E 030°58'1213.4
2014-Sep-15 08:33N 32°08' E 030°45'11213.1
2014-Sep-15 00:00N 32°36' E 028°36'68513.7 340 / 61012.810.8 0.529.521.428.0
2014-Sep-12 22:08N 36°07' E 015°27'814.4
2014-Sep-12 21:34N 36°09' E 015°17'1514.5
2014-Sep-12 20:32N 36°14' E 014°60'1414.6
2014-Sep-12 19:33N 36°19' E 014°43'1514.7
2014-Sep-12 18:34N 36°23' E 014°26'1714.9
2014-Sep-12 17:27N 36°28' E 014°06'1415.5
2014-Sep-12 16:34N 36°32' E 013°49'1715.6
2014-Sep-12 15:29N 36°37' E 013°29'1414.7
2014-Sep-12 14:31N 36°41' E 013°13'4015.7
2014-Sep-12 12:00N 36°48' E 012°24'2313.4 220 / 121018.810.8 0.529.523.826.0
2014-Sep-12 10:19N 36°60' E 012°00'5714.4
2014-Sep-12 06:22N 37°26' E 010°56'1214.9
2014-Sep-12 05:33N 37°29' E 010°42'11814.6
2014-Sep-11 21:26N 37°15' E 008°14'1314.1
2014-Sep-11 20:30N 37°15' E 007°57'1914.5
2014-Sep-11 19:11N 37°15' E 007°33'7315.0
2014-Sep-11 14:19N 37°15' E 006°02'1114.1
2014-Sep-11 13:34N 37°15' E 005°48'2415.5
2014-Sep-11 12:00N 37°12' E 005°18'811.7 290 / 101015.0 5.4 0.528.522.726.0
2014-Sep-11 11:17N 37°16' E 005°09'2814.3
2014-Sep-11 09:20N 37°15' E 004°34'1515.1
2014-Sep-11 08:20N 37°15' E 004°15'1215.2
2014-Sep-11 07:33N 37°15' E 003°60'1514.9
2014-Sep-11 06:32N 37°15' E 003°41'1514.9
2014-Sep-11 05:33N 37°15' E 003°22'1514.9
2014-Sep-11 04:33N 37°15' E 003°03'1414.4
2014-Sep-11 03:34N 37°14' E 002°46'1414.4
2014-Sep-11 02:33N 37°11' E 002°28'1414.4
2014-Sep-11 01:33N 37°07' E 002°10'1514.6
2014-Sep-11 00:33N 37°04' E 001°53'2014.2
2014-Sep-10 23:08N 37°00' E 001°28'1014.3
2014-Sep-10 22:26N 36°58' E 001°16'1314.8
2014-Sep-10 21:33N 36°55' E 000°60'1915.2
2014-Sep-10 20:18N 36°51' E 000°36'1115.2
2014-Sep-10 19:33N 36°49' E 000°23'1515.0
2014-Sep-10 18:33N 36°46' E 000°04'1514.7
2014-Sep-10 17:33N 36°42' W 000°14'1514.7
2014-Sep-10 16:32N 36°39' W 000°32'1514.8
2014-Sep-10 15:32N 36°36' W 000°50'4813.6
2014-Sep-10 12:00N 36°24' W 001°48'17715.5 230 / 121016.110.8 0.528.022.123.0
2014-Sep-10 00:32N 35°57' W 005°25'17114.1
2014-Sep-09 12:24N 36°29' W 008°53'  

Dump ship's entire track history